Time;durP1;ratioP1;P1;durP2;ratioP2;P2;SDS_P1;SDS_P2;PMS_P1;PMS_P2;Temp;Humidity;BMP_temperature;BMP_pressure;BME280_temperature;BME280_humidity;BME280_pressure;Samples;Min_cycle;Max_cycle;Signal;HPM_P1;HPM_P2
2023/08/08 00:01:55;;;;;;;6.07;3.28;;;;;;;15.30;81.12;100911.63;5033242;28;20038;-45
2023/08/08 00:04:23;;;;;;;3.25;2.92;;;;;;;15.30;81.22;100917.19;5041646;28;20385;-44
2023/08/08 00:06:49;;;;;;;3.50;3.10;;;;;;;15.30;81.42;100914.41;5034095;28;20068;-44
2023/08/08 00:09:16;;;;;;;7.57;2.70;;;;;;;15.32;81.55;100917.63;5016189;28;20140;-44
2023/08/08 00:11:43;;;;;;;3.00;2.45;;;;;;;15.27;81.54;100902.78;5032779;28;20400;-46
2023/08/08 00:14:10;;;;;;;4.45;2.47;;;;;;;15.30;81.81;100897.69;5032234;28;20045;-44
2023/08/08 00:16:37;;;;;;;5.03;2.42;;;;;;;15.32;82.03;100889.72;5033707;28;20049;-44
2023/08/08 00:19:06;;;;;;;3.63;2.22;;;;;;;15.30;81.76;100884.53;5033718;28;20049;-43
2023/08/08 00:21:33;;;;;;;3.00;1.95;;;;;;;15.30;81.88;100878.16;5033180;28;20049;-44
2023/08/08 00:24:00;;;;;;;2.25;1.90;;;;;;;15.33;82.04;100885.78;5031741;28;20577;-44
2023/08/08 00:26:28;;;;;;;4.43;2.17;;;;;;;15.33;82.05;100864.25;5022287;28;20062;-43
2023/08/08 00:28:55;;;;;;;2.75;2.00;;;;;;;15.33;82.06;100858.66;5027592;28;20056;-45
2023/08/08 00:31:22;;;;;;;3.03;1.83;;;;;;;15.34;82.24;100867.84;5030841;28;20503;-44
2023/08/08 00:33:48;;;;;;;7.72;2.53;;;;;;;15.32;82.43;100868.22;5030175;28;20407;-45
2023/08/08 00:36:15;;;;;;;3.83;2.17;;;;;;;15.33;82.61;100869.03;5030123;28;20068;-44
2023/08/08 00:38:42;;;;;;;9.43;3.55;;;;;;;15.31;82.72;100866.59;5028523;28;20446;-44
2023/08/08 00:41:09;;;;;;;6.07;1.88;;;;;;;15.31;82.77;100866.59;5027959;28;20060;-44
2023/08/08 00:43:35;;;;;;;3.67;1.70;;;;;;;15.29;82.94;100870.94;5028568;28;20042;-45
2023/08/08 00:46:03;;;;;;;13.13;4.25;;;;;;;15.30;83.03;100865.00;5032972;28;20049;-44
2023/08/08 00:48:32;;;;;;;2.10;1.80;;;;;;;15.33;83.09;100867.03;5031427;28;20128;-44
2023/08/08 00:50:59;;;;;;;3.63;2.25;;;;;;;15.34;82.92;100870.63;5030944;28;20041;-43
2023/08/08 00:53:28;;;;;;;7.45;2.20;;;;;;;15.32;83.17;100871.00;5024000;28;20038;-43
2023/08/08 00:55:54;;;;;;;3.13;2.03;;;;;;;15.33;83.15;100852.31;5030618;28;20100;-44
2023/08/08 00:58:22;;;;;;;3.47;1.88;;;;;;;15.34;83.19;100851.91;5032610;28;20052;-44
2023/08/08 01:00:49;;;;;;;9.55;2.55;;;;;;;15.33;83.28;100846.72;5033171;28;20049;-45
2023/08/08 01:03:16;;;;;;;6.32;2.50;;;;;;;15.35;83.32;100849.94;5031821;28;20124;-44
2023/08/08 01:05:53;;;;;;;4.05;1.88;;;;;;;15.35;83.36;100849.94;5032791;28;20116;-44
2023/08/08 01:08:30;;;;;;;7.85;2.20;;;;;;;15.32;83.37;100845.09;5032397;28;20049;-44
2023/08/08 01:10:57;;;;;;;5.72;2.03;;;;;;;15.29;83.61;100843.06;5031964;28;20041;-44
2023/08/08 01:13:27;;;;;;;2.35;1.73;;;;;;;15.29;83.65;100845.84;5030647;28;20049;-45
2023/08/08 01:15:57;;;;;;;8.05;2.40;;;;;;;15.29;83.60;100843.06;5027265;28;20046;-44
2023/08/08 01:18:25;;;;;;;3.92;1.80;;;;;;;15.27;83.84;100845.41;5031426;28;20099;-45
2023/08/08 01:20:54;;;;;;;4.28;1.88;;;;;;;15.27;84.06;100849.03;5032676;28;20064;-44
2023/08/08 01:23:52;;;;;;;2.92;1.90;;;;;;;15.27;84.15;100845.41;5020685;28;20507;-45
2023/08/08 01:26:21;;;;;;;2.88;1.77;;;;;;;15.27;84.16;100849.81;5032131;28;20444;-45
2023/08/08 01:28:51;;;;;;;5.03;2.05;;;;;;;15.24;84.17;100864.53;5025786;28;20075;-44
2023/08/08 01:31:18;;;;;;;3.00;2.28;;;;;;;15.24;84.11;100856.16;5019482;28;20400;-46
2023/08/08 01:33:45;;;;;;;7.32;2.00;;;;;;;15.25;84.32;100856.94;5030733;28;20051;-46
2023/08/08 01:36:31;;;;;;;4.97;2.10;;;;;;;15.22;84.10;100858.50;5027874;28;20609;-46
2023/08/08 01:39:04;;;;;;;6.15;2.05;;;;;;;15.20;84.43;100849.69;5027070;28;20041;-44
2023/08/08 01:41:33;;;;;;;3.63;1.73;;;;;;;15.20;84.52;100846.91;5029909;28;20045;-45
2023/08/08 01:44:02;;;;;;;3.80;1.55;;;;;;;15.20;84.57;100849.69;5026817;28;20499;-44
2023/08/08 01:46:30;;;;;;;8.63;4.15;;;;;;;15.20;84.75;100849.69;5030848;28;20038;-49
2023/08/08 01:49:00;;;;;;;4.50;2.30;;;;;;;15.17;84.84;100844.84;5027357;28;20045;-45
2023/08/08 01:51:27;;;;;;;3.85;1.92;;;;;;;15.14;84.86;100853.19;5029043;28;20060;-48
2023/08/08 01:53:55;;;;;;;4.32;2.13;;;;;;;15.15;84.88;100850.00;5024866;28;20819;-45
2023/08/08 01:56:23;;;;;;;9.15;2.85;;;;;;;15.12;85.04;100845.19;5028182;28;20064;-44
2023/08/08 01:58:50;;;;;;;2.88;1.88;;;;;;;15.13;85.08;100841.22;5030386;28;20045;-46
2023/08/08 02:01:16;;;;;;;4.32;2.50;;;;;;;15.14;85.11;100851.19;5031692;28;20049;-44
2023/08/08 02:03:43;;;;;;;3.28;2.05;;;;;;;15.15;85.12;100841.66;5029663;28;20156;-44
2023/08/08 02:06:10;;;;;;;2.75;2.00;;;;;;;15.12;85.29;100836.81;5031531;28;20120;-44
2023/08/08 02:08:37;;;;;;;5.28;1.95;;;;;;;15.09;85.25;100837.56;5032100;28;20038;-47
2023/08/08 02:11:04;;;;;;;5.97;2.15;;;;;;;15.07;85.11;100841.91;5031784;28;20495;-46
2023/08/08 02:13:30;;;;;;;7.45;2.40;;;;;;;15.06;85.35;100838.28;5030600;28;20052;-45
2023/08/08 02:15:57;;;;;;;3.78;1.63;;;;;;;15.05;85.22;100828.34;5031716;28;20041;-46
2023/08/08 02:18:25;;;;;;;6.03;2.40;;;;;;;15.06;85.45;100834.72;5031293;28;20136;-44
2023/08/08 02:20:52;;;;;;;2.05;1.85;;;;;;;15.03;85.52;100822.34;5030075;28;20045;-45
2023/08/08 02:23:19;;;;;;;2.47;1.83;;;;;;;15.01;85.58;100824.69;5027904;28;20041;-44
2023/08/08 02:25:46;;;;;;;2.60;1.60;;;;;;;14.97;85.84;100823.00;5029183;28;20061;-44
2023/08/08 02:28:13;;;;;;;2.67;1.73;;;;;;;14.93;85.94;100806.22;5023417;28;20045;-44
2023/08/08 02:30:39;;;;;;;3.72;2.10;;;;;;;14.91;85.90;100799.41;5028040;28;20048;-44
2023/08/08 02:33:07;;;;;;;4.47;2.15;;;;;;;14.86;86.08;100808.91;5023470;28;20042;-44
2023/08/08 02:35:36;;;;;;;4.72;2.03;;;;;;;14.82;86.23;100805.25;5027778;28;20045;-44
2023/08/08 02:38:02;;;;;;;6.43;2.25;;;;;;;14.79;86.50;100810.75;5027737;28;20053;-45
2023/08/08 02:40:29;;;;;;;3.10;2.00;;;;;;;14.76;86.75;100806.75;5030610;28;20502;-44
2023/08/08 02:42:56;;;;;;;2.50;2.22;;;;;;;14.73;86.98;100815.03;5027564;28;20136;-44
2023/08/08 02:45:23;;;;;;;3.75;2.30;;;;;;;14.72;87.00;100808.63;5025220;28;20049;-44
2023/08/08 02:47:50;;;;;;;6.45;2.15;;;;;;;14.72;86.97;100811.44;5028953;28;20491;-44
2023/08/08 02:50:17;;;;;;;4.68;1.85;;;;;;;14.72;87.12;100805.84;5028673;28;20052;-44
2023/08/08 02:52:44;;;;;;;4.47;2.30;;;;;;;14.69;87.23;100812.19;5028981;28;20518;-44
2023/08/08 02:55:11;;;;;;;9.48;2.20;;;;;;;14.67;87.27;100810.97;5029011;28;20068;-45
2023/08/08 02:57:39;;;;;;;6.15;2.10;;;;;;;14.67;87.48;100797.81;5021051;28;20044;-44
2023/08/08 03:00:08;;;;;;;4.10;2.10;;;;;;;14.66;87.40;100801.78;5028189;28;20041;-44
2023/08/08 03:02:35;;;;;;;4.10;2.10;;;;;;;14.63;87.78;100800.56;5011695;28;20049;-49
2023/08/08 03:05:01;;;;;;;3.25;2.20;;;;;;;14.63;87.90;100808.09;5021194;28;20037;-44
2023/08/08 03:07:28;;;;;;;3.47;2.28;;;;;;;14.63;88.06;100808.91;5029673;28;20045;-43
2023/08/08 03:09:55;;;;;;;3.33;1.95;;;;;;;14.66;88.01;100801.78;5030096;28;20053;-47
2023/08/08 03:12:22;;;;;;;5.60;2.90;;;;;;;14.65;88.06;100794.59;5026164;28;20046;-44
2023/08/08 03:14:49;;;;;;;4.45;2.00;;;;;;;14.64;88.14;100788.22;5028354;28;20060;-44
2023/08/08 03:17:16;;;;;;;4.03;1.88;;;;;;;14.64;88.37;100793.78;5029066;28;20052;-45
2023/08/08 03:19:43;;;;;;;4.00;1.77;;;;;;;14.62;88.51;100789.75;5029047;28;20056;-44
2023/08/08 03:22:10;;;;;;;3.40;2.15;;;;;;;14.63;88.50;100788.59;5027913;28;20046;-45
2023/08/08 03:24:37;;;;;;;6.03;2.28;;;;;;;14.60;88.68;100792.13;5028206;28;20057;-44
2023/08/08 03:27:04;;;;;;;3.22;2.30;;;;;;;14.59;88.59;100798.84;5026334;28;20037;-44
2023/08/08 03:29:31;;;;;;;9.55;2.08;;;;;;;14.56;88.79;100796.84;5026843;28;20088;-44
2023/08/08 03:31:58;;;;;;;4.15;2.35;;;;;;;14.54;88.85;100793.59;5029085;28;20056;-44
2023/08/08 03:34:25;;;;;;;3.92;2.50;;;;;;;14.52;89.02;100790.38;5029821;28;20107;-44
2023/08/08 03:36:52;;;;;;;4.15;2.35;;;;;;;14.52;88.98;100798.75;5033325;28;20053;-44
2023/08/08 03:39:18;;;;;;;5.47;2.50;;;;;;;14.51;89.22;100797.13;5028835;28;20076;-44
2023/08/08 03:41:45;;;;;;;4.30;2.33;;;;;;;14.48;89.14;100789.53;5034101;28;20033;-44
2023/08/08 03:44:12;;;;;;;4.15;2.20;;;;;;;14.46;89.53;100791.84;5030803;28;20179;-45
2023/08/08 03:46:39;;;;;;;6.20;2.85;;;;;;;14.47;89.52;100796.25;5028194;28;20052;-44
2023/08/08 03:49:06;;;;;;;5.25;2.38;;;;;;;14.48;89.74;100800.66;5032597;28;20527;-46
2023/08/08 03:51:33;;;;;;;12.13;3.75;;;;;;;14.48;89.61;100795.09;5030561;28;20053;-44
2023/08/08 03:54:00;;;;;;;6.30;2.00;;;;;;;14.49;89.70;100791.13;5029991;28;20045;-44
2023/08/08 03:56:27;;;;;;;9.77;3.90;;;;;;;14.48;89.49;100790.31;5033861;28;20159;-44
2023/08/08 03:58:54;;;;;;;4.00;2.58;;;;;;;14.46;89.84;100777.91;5033267;28;20037;-44
2023/08/08 04:01:21;;;;;;;6.30;3.00;;;;;;;14.44;90.01;100781.09;5029417;28;20046;-44
2023/08/08 04:03:48;;;;;;;5.13;3.08;;;;;;;14.43;90.01;100782.25;5031016;28;20045;-44
2023/08/08 04:06:15;;;;;;;3.13;2.28;;;;;;;14.41;90.15;100778.22;5025903;28;20042;-44
2023/08/08 04:08:41;;;;;;;4.03;2.53;;;;;;;14.40;90.13;100777.41;5034227;28;20049;-45
2023/08/08 04:11:09;;;;;;;5.65;3.20;;;;;;;14.39;90.00;100780.59;5027747;28;20522;-44
2023/08/08 04:13:36;;;;;;;3.85;2.30;;;;;;;14.37;90.04;100771.81;5029019;28;20042;-44
2023/08/08 04:16:03;;;;;;;6.65;3.13;;;;;;;14.32;90.05;100769.31;5029892;28;20049;-44
2023/08/08 04:18:30;;;;;;;5.70;2.53;;;;;;;14.27;90.28;100766.81;5033630;28;20480;-46
2023/08/08 04:20:57;;;;;;;6.55;3.20;;;;;;;14.23;90.51;100757.56;5031619;28;20041;-44
2023/08/08 04:23:25;;;;;;;6.20;2.88;;;;;;;14.23;90.54;100760.34;5030518;28;20076;-44
2023/08/08 04:25:53;;;;;;;3.83;2.22;;;;;;;14.19;90.49;100756.72;5030221;28;20053;-44
2023/08/08 04:28:20;;;;;;;6.88;2.70;;;;;;;14.15;90.37;100755.84;5029187;28;20119;-47
2023/08/08 04:30:47;;;;;;;5.68;2.83;;;;;;;14.10;90.42;100761.69;5028416;28;20387;-45
2023/08/08 04:33:14;;;;;;;5.38;2.40;;;;;;;14.03;90.56;100762.38;5029598;28;20041;-45
2023/08/08 04:35:40;;;;;;;3.67;3.38;;;;;;;13.96;90.75;100763.03;5032083;28;20095;-44
2023/08/08 04:38:07;;;;;;;4.88;2.70;;;;;;;13.92;90.81;100748.25;5032458;28;20057;-45
2023/08/08 04:40:35;;;;;;;7.57;2.58;;;;;;;13.91;90.81;100754.97;5031866;28;20503;-44
2023/08/08 04:43:04;;;;;;;6.97;2.58;;;;;;;13.84;91.05;100748.47;5025741;28;20107;-44
2023/08/08 04:45:31;;;;;;;7.85;3.03;;;;;;;13.79;90.99;100744.00;5026914;28;20045;-44
2023/08/08 04:47:58;;;;;;;4.72;2.72;;;;;;;13.73;91.07;100745.47;5030035;28;20041;-44
2023/08/08 04:50:25;;;;;;;5.57;3.13;;;;;;;13.69;91.19;100746.56;5030946;28;20045;-44
2023/08/08 04:52:51;;;;;;;8.65;3.80;;;;;;;13.65;91.45;100746.50;5026649;28;20053;-44
2023/08/08 04:55:19;;;;;;;4.28;2.88;;;;;;;13.64;91.51;100756.00;5029399;28;20126;-46
2023/08/08 04:57:46;;;;;;;11.60;3.25;;;;;;;13.60;91.52;100744.00;5028637;28;20049;-47
2023/08/08 05:00:14;;;;;;;4.13;2.75;;;;;;;13.59;91.63;100739.59;5028552;28;20037;-45
2023/08/08 05:02:41;;;;;;;7.47;3.22;;;;;;;13.56;91.69;100731.19;5031803;28;20052;-44
2023/08/08 05:05:09;;;;;;;5.68;2.58;;;;;;;13.51;91.69;100740.63;5030958;28;20046;-43
2023/08/08 05:07:37;;;;;;;8.90;4.63;;;;;;;13.49;91.85;100733.81;5031653;28;20037;-44
2023/08/08 05:10:05;;;;;;;2.95;2.65;;;;;;;13.47;92.00;100736.16;5031579;28;20059;-44
2023/08/08 05:12:32;;;;;;;4.75;3.55;;;;;;;13.44;91.99;100734.94;5032813;28;20040;-44
2023/08/08 05:14:59;;;;;;;5.03;2.95;;;;;;;13.40;92.05;100734.84;5030631;28;20404;-45
2023/08/08 05:17:25;;;;;;;3.53;2.83;;;;;;;13.39;92.22;100721.31;5032719;28;20068;-45
2023/08/08 05:19:52;;;;;;;4.50;2.72;;;;;;;13.38;92.24;100731.63;5032429;28;20054;-45
2023/08/08 05:22:19;;;;;;;5.32;2.60;;;;;;;13.39;92.55;100726.88;5032860;28;20041;-44
2023/08/08 05:24:46;;;;;;;4.78;2.28;;;;;;;13.35;92.53;100732.34;5031118;28;20057;-44
2023/08/08 05:27:13;;;;;;;6.43;2.47;;;;;;;13.35;92.55;100737.91;5032317;28;20414;-44
2023/08/08 05:29:40;;;;;;;4.47;2.63;;;;;;;13.35;92.55;100737.09;5032554;28;20500;-44
2023/08/08 05:32:08;;;;;;;6.45;2.17;;;;;;;13.34;92.89;100741.06;5027362;28;20049;-45
2023/08/08 05:34:34;;;;;;;5.75;3.08;;;;;;;13.33;92.89;100740.25;5029151;28;20080;-44
2023/08/08 05:37:01;;;;;;;5.43;2.45;;;;;;;13.35;92.99;100735.13;5025967;28;20140;-44
2023/08/08 05:39:42;;;;;;;11.50;2.92;;;;;;;13.36;93.05;100733.16;5031103;28;20041;-44
2023/08/08 05:42:09;;;;;;;6.00;2.22;;;;;;;13.38;93.07;100730.81;5024524;28;20034;-44
2023/08/08 05:44:36;;;;;;;4.05;1.95;;;;;;;13.39;92.97;100729.66;5024078;28;20582;-45
2023/08/08 05:47:03;;;;;;;2.63;2.17;;;;;;;13.40;93.16;100734.03;5026323;28;20048;-45
2023/08/08 05:49:30;;;;;;;6.80;1.90;;;;;;;13.40;93.43;100734.03;5030483;28;20124;-44
2023/08/08 05:51:56;;;;;;;3.55;2.03;;;;;;;13.41;93.41;100742.03;5029204;28;20120;-45
2023/08/08 05:54:24;;;;;;;4.03;2.13;;;;;;;13.44;93.73;100740.47;5028609;28;20124;-44
2023/08/08 05:56:51;;;;;;;5.03;2.35;;;;;;;13.46;93.53;100749.25;5027852;28;20692;-44
2023/08/08 05:59:18;;;;;;;4.13;2.00;;;;;;;13.49;93.71;100748.53;5026354;28;20522;-45
2023/08/08 06:01:45;;;;;;;4.00;2.25;;;;;;;13.49;93.60;100745.75;5028486;28;20041;-47
2023/08/08 06:04:12;;;;;;;2.95;1.77;;;;;;;13.52;93.68;100749.78;5028513;28;20060;-45
2023/08/08 06:06:39;;;;;;;7.97;2.15;;;;;;;13.54;93.80;100745.47;5019861;28;20064;-44
2023/08/08 06:09:08;;;;;;;5.57;1.90;;;;;;;13.57;93.83;100738.38;5029525;28;20045;-45
2023/08/08 06:11:35;;;;;;;3.20;1.95;;;;;;;13.59;94.12;100741.59;5029452;28;20048;-44
2023/08/08 06:14:02;;;;;;;4.63;2.70;;;;;;;13.64;94.04;100741.28;5023600;28;20045;-45
2023/08/08 06:16:29;;;;;;;10.02;2.13;;;;;;;13.69;94.08;100725.09;5029147;28;20123;-45
2023/08/08 06:18:56;;;;;;;5.38;3.05;;;;;;;13.71;93.96;100739.47;5028757;28;20052;-46
2023/08/08 06:21:23;;;;;;;6.55;2.58;;;;;;;13.75;93.98;100740.34;5027507;28;20450;-46
2023/08/08 06:23:54;;;;;;;4.80;2.40;;;;;;;13.76;94.29;100736.41;5028035;28;20598;-44
2023/08/08 06:26:21;;;;;;;3.40;1.70;;;;;;;13.81;94.21;100738.06;5027701;28;20061;-44
2023/08/08 06:28:48;;;;;;;2.50;2.17;;;;;;;13.84;94.10;100729.81;5026037;28;20049;-45
2023/08/08 06:31:15;;;;;;;3.58;1.95;;;;;;;13.88;94.31;100733.44;5022150;28;20506;-44
2023/08/08 06:33:43;;;;;;;3.22;1.88;;;;;;;13.91;94.32;100735.50;5013629;28;20056;-46
2023/08/08 06:36:09;;;;;;;4.97;1.50;;;;;;;13.97;94.35;100742.38;5021511;28;20037;-44
2023/08/08 06:38:39;;;;;;;2.75;2.10;;;;;;;13.99;94.24;100742.81;5016038;28;20099;-44
2023/08/08 06:41:06;;;;;;;3.47;2.15;;;;;;;14.04;94.46;100745.31;5025204;28;20064;-44
2023/08/08 06:43:34;;;;;;;4.28;2.22;;;;;;;14.08;94.28;100737.03;5031133;28;20080;-44
2023/08/08 06:46:01;;;;;;;2.58;1.90;;;;;;;14.15;94.29;100753.84;5031462;28;20046;-44
2023/08/08 06:48:28;;;;;;;4.55;1.92;;;;;;;14.23;94.32;100754.78;5030252;28;20041;-44
2023/08/08 06:50:54;;;;;;;8.98;3.83;;;;;;;14.33;94.31;100745.84;5030987;28;20053;-45
2023/08/08 06:53:23;;;;;;;4.50;1.77;;;;;;;14.40;94.24;100737.66;5031153;28;20411;-44
2023/08/08 06:55:50;;;;;;;4.38;1.70;;;;;;;14.44;94.14;100730.94;5028837;28;20522;-46
2023/08/08 06:58:17;;;;;;;3.50;2.03;;;;;;;14.45;94.06;100738.16;5027727;28;20052;-44
2023/08/08 07:00:43;;;;;;;3.28;1.63;;;;;;;14.47;94.12;100748.91;5030916;28;20045;-44
2023/08/08 07:03:10;;;;;;;3.95;1.55;;;;;;;14.47;94.02;100740.53;5030674;28;20053;-44
2023/08/08 07:05:39;;;;;;;2.08;1.27;;;;;;;14.49;94.06;100738.19;5035521;28;20073;-44
2023/08/08 07:08:06;;;;;;;2.00;1.30;;;;;;;14.53;93.96;100741.84;5032035;28;20049;-44
2023/08/08 07:10:32;;;;;;;1.33;1.23;;;;;;;14.59;94.12;100735.59;5029371;28;20103;-44
2023/08/08 07:12:59;;;;;;;1.67;1.52;;;;;;;14.66;94.30;100734.09;5021564;28;20449;-46
2023/08/08 07:15:28;;;;;;;8.63;1.85;;;;;;;14.76;94.06;100739.84;5023521;28;20053;-49
2023/08/08 07:17:55;;;;;;;5.07;1.40;;;;;;;14.92;94.00;100743.28;5031109;28;20048;-44
2023/08/08 07:20:24;;;;;;;2.35;1.45;;;;;;;15.09;93.70;100726.00;5021688;28;20049;-51
2023/08/08 07:22:51;;;;;;;2.55;1.33;;;;;;;15.27;93.59;100728.28;5029407;28;20045;-44
2023/08/08 07:25:17;;;;;;;1.33;1.15;;;;;;;15.43;93.38;100729.69;5012889;28;20084;-44
2023/08/08 07:27:44;;;;;;;2.58;1.10;;;;;;;15.61;93.20;100727.16;5026970;28;20091;-47
2023/08/08 07:30:12;;;;;;;2.28;1.00;;;;;;;15.73;92.94;100722.13;5025841;28;20037;-45
2023/08/08 07:32:39;;;;;;;2.08;1.40;;;;;;;15.84;92.78;100717.47;5033348;28;20046;-45
2023/08/08 07:35:23;;;;;;;1.17;0.85;;;;;;;15.89;92.67;100716.34;5029535;28;20073;-45
2023/08/08 07:37:49;;;;;;;4.05;1.55;;;;;;;15.94;92.64;100732.75;5034445;28;20050;-45
2023/08/08 07:40:26;;;;;;;2.90;1.23;;;;;;;16.00;92.68;100733.19;5030060;28;21674;-46
2023/08/08 07:42:53;;;;;;;3.15;2.38;;;;;;;16.04;92.70;100732.06;5030552;28;20048;-45
2023/08/08 07:45:20;;;;;;;2.95;1.35;;;;;;;16.11;92.65;100731.34;5033328;28;20045;-46
2023/08/08 07:47:48;;;;;;;2.25;0.90;;;;;;;16.15;92.73;100730.19;5032705;28;20049;-44
2023/08/08 07:50:15;;;;;;;2.15;1.02;;;;;;;16.24;93.09;100736.28;5031367;28;20129;-45
2023/08/08 07:52:42;;;;;;;4.60;1.92;;;;;;;16.38;93.16;100742.00;5032517;28;20065;-44
2023/08/08 07:55:09;;;;;;;2.70;1.10;;;;;;;16.53;93.21;100744.94;5034130;28;20060;-45
2023/08/08 07:57:36;;;;;;;3.05;1.08;;;;;;;16.67;93.21;100753.47;5034002;28;20467;-45
2023/08/08 08:00:12;;;;;;;1.48;1.25;;;;;;;16.82;93.45;100761.59;5031838;28;20077;-45
2023/08/08 08:02:41;;;;;;;2.25;1.27;;;;;;;17.01;93.47;100746.56;5033541;28;20045;-45
2023/08/08 08:05:09;;;;;;;5.07;1.10;;;;;;;17.23;93.43;100736.31;5032268;28;20037;-44
2023/08/08 08:07:36;;;;;;;0.68;0.68;;;;;;;17.41;93.13;100742.81;5026228;28;20126;-44
2023/08/08 08:10:05;;;;;;;1.00;0.90;;;;;;;17.54;92.25;100742.13;5033862;28;20064;-45
2023/08/08 08:12:33;;;;;;;1.65;0.93;;;;;;;17.73;92.09;100732.63;5033945;28;20041;-44
2023/08/08 08:14:59;;;;;;;5.00;1.35;;;;;;;17.95;92.04;100727.91;5034185;28;20053;-44
2023/08/08 08:17:28;;;;;;;1.60;1.50;;;;;;;18.18;91.42;100725.56;5033872;28;20051;-46
2023/08/08 08:19:55;;;;;;;5.13;1.27;;;;;;;18.45;91.21;100734.41;5032022;28;20046;-45
2023/08/08 08:22:22;;;;;;;2.83;1.70;;;;;;;18.73;89.60;100735.25;5033661;28;20077;-45
2023/08/08 08:24:48;;;;;;;1.88;0.90;;;;;;;18.93;87.22;100740.47;5033905;28;20060;-47
2023/08/08 08:27:15;;;;;;;1.95;1.55;;;;;;;19.08;85.91;100728.81;5027935;28;20041;-47
2023/08/08 08:29:43;;;;;;;2.60;1.15;;;;;;;19.40;84.74;100731.59;5032663;28;20045;-45
2023/08/08 08:32:10;;;;;;;2.60;2.20;;;;;;;20.16;82.32;100739.28;5033808;28;20144;-48
2023/08/08 08:34:36;;;;;;;3.72;0.90;;;;;;;20.76;79.84;100739.69;5033500;28;20435;-46
2023/08/08 08:37:03;;;;;;;1.90;0.70;;;;;;;20.94;77.47;100737.50;5033600;28;20099;-45
2023/08/08 08:39:30;;;;;;;1.35;0.88;;;;;;;20.98;75.44;100729.03;5031911;28;20041;-44
2023/08/08 08:42:03;;;;;;;1.58;0.77;;;;;;;20.76;74.49;100727.66;5029512;28;20052;-45
2023/08/08 08:44:34;;;;;;;1.52;0.70;;;;;;;20.52;73.19;100729.41;5033299;28;20053;-45
2023/08/08 08:47:10;;;;;;;0.80;0.52;;;;;;;20.68;73.10;100738.13;5029089;28;20052;-46
2023/08/08 08:49:38;;;;;;;2.58;0.70;;;;;;;21.14;71.72;100730.13;5032284;28;21113;-43
2023/08/08 08:52:05;;;;;;;0.82;0.70;;;;;;;21.76;70.36;100745.94;5033211;28;20438;-42
2023/08/08 08:54:33;;;;;;;2.72;0.77;;;;;;;21.79;68.58;100742.25;5032689;28;20045;-46
2023/08/08 08:56:59;;;;;;;2.92;0.90;;;;;;;21.63;68.36;100740.03;5033078;28;20060;-46
2023/08/08 08:59:26;;;;;;;1.52;0.70;;;;;;;21.42;67.67;100747.97;5032263;28;20103;-47
2023/08/08 09:01:53;;;;;;;2.25;1.40;;;;;;;21.15;67.42;100748.59;5032401;28;20044;-44
2023/08/08 09:04:21;;;;;;;2.47;1.00;;;;;;;20.81;67.13;100752.53;5033021;28;20052;-46
2023/08/08 09:06:50;;;;;;;1.25;0.88;;;;;;;20.37;67.33;100751.22;5033048;28;20068;-46
2023/08/08 09:09:17;;;;;;;1.55;1.00;;;;;;;19.96;67.85;100741.81;5031583;28;20422;-45
2023/08/08 09:11:53;;;;;;;2.47;0.70;;;;;;;19.66;68.53;100735.91;5033150;28;20119;-45
2023/08/08 09:14:25;;;;;;;0.88;0.70;;;;;;;19.50;68.77;100739.19;5020106;28;20462;-44
2023/08/08 09:16:53;;;;;;;2.13;1.02;;;;;;;19.56;68.85;100736.75;5032673;28;20037;-44
2023/08/08 09:19:21;;;;;;;1.77;0.73;;;;;;;19.77;69.10;100742.28;5030455;28;20052;-45
2023/08/08 09:21:49;;;;;;;0.82;0.80;;;;;;;19.99;68.38;100738.16;5033833;28;20392;-44
2023/08/08 09:24:17;;;;;;;3.63;0.90;;;;;;;20.05;67.62;100754.19;5044435;28;20041;-44
2023/08/08 09:26:45;;;;;;;2.40;1.00;;;;;;;20.06;67.40;100738.13;5024132;28;20062;-46
2023/08/08 09:29:14;;;;;;;1.35;1.10;;;;;;;19.99;67.54;100736.16;5031066;28;20041;-45
2023/08/08 09:31:41;;;;;;;1.77;1.13;;;;;;;20.10;68.00;100726.84;5031658;28;20072;-47
2023/08/08 09:34:08;;;;;;;2.55;0.57;;;;;;;20.33;67.29;100741.22;5032578;28;20048;-45
2023/08/08 09:36:36;;;;;;;0.47;0.47;;;;;;;20.39;66.78;100739.56;5032626;28;20049;-44
2023/08/08 09:39:03;;;;;;;0.85;0.65;;;;;;;20.31;66.89;100741.63;5031372;28;20048;-44
2023/08/08 09:41:30;;;;;;;3.88;1.17;;;;;;;20.26;66.25;100735.63;5032150;28;20068;-44
2023/08/08 09:43:59;;;;;;;3.90;0.77;;;;;;;20.16;66.21;100739.28;5032202;28;20504;-44
2023/08/08 09:46:26;;;;;;;0.82;0.75;;;;;;;19.86;66.16;100743.44;5031500;28;20578;-45
2023/08/08 09:48:56;;;;;;;0.55;0.45;;;;;;;19.45;66.36;100742.41;5031141;28;20041;-45
2023/08/08 09:51:24;;;;;;;1.90;0.65;;;;;;;19.16;66.90;100740.84;5032103;28;20045;-44
2023/08/08 09:53:51;;;;;;;0.85;0.50;;;;;;;18.89;67.40;100736.84;5031976;28;20041;-45
2023/08/08 09:56:19;;;;;;;2.05;0.70;;;;;;;18.64;67.87;100739.63;5032073;28;20092;-46
2023/08/08 09:58:46;;;;;;;1.13;0.70;;;;;;;18.38;68.14;100749.19;5029293;28;20041;-45
2023/08/08 10:01:14;;;;;;;1.92;0.63;;;;;;;18.21;68.92;100758.38;5031936;28;20037;-44
2023/08/08 10:03:44;;;;;;;1.70;0.57;;;;;;;18.06;69.07;100746.31;5032024;28;20396;-47
2023/08/08 10:06:13;;;;;;;3.08;0.68;;;;;;;17.93;69.70;100742.28;5031821;28;20037;-44
2023/08/08 10:08:40;;;;;;;2.67;0.90;;;;;;;17.86;69.89;100742.25;5030678;28;20096;-45
2023/08/08 10:11:10;;;;;;;2.75;0.77;;;;;;;17.82;70.42;100741.44;5031604;28;20052;-44
2023/08/08 10:13:37;;;;;;;1.58;0.90;;;;;;;17.82;70.58;100747.03;5031831;28;20052;-45
2023/08/08 10:16:08;;;;;;;3.28;1.10;;;;;;;17.83;70.71;100737.44;5031773;28;20072;-46
2023/08/08 10:18:35;;;;;;;1.42;1.00;;;;;;;17.88;71.02;100739.06;5030428;28;20087;-45
2023/08/08 10:21:04;;;;;;;9.18;0.93;;;;;;;18.03;70.96;100737.94;5031492;28;20503;-44
2023/08/08 10:23:40;;;;;;;3.08;1.10;;;;;;;18.12;70.64;100738.34;5031540;28;20041;-44
2023/08/08 10:26:19;;;;;;;2.88;0.90;;;;;;;18.11;70.99;100745.94;5029831;28;20115;-46
2023/08/08 10:28:59;;;;;;;3.10;1.05;;;;;;;18.13;71.31;100751.97;5030195;28;20042;-45
2023/08/08 10:31:27;;;;;;;1.85;1.00;;;;;;;18.12;71.62;100755.16;5031375;28;20052;-44
2023/08/08 10:34:03;;;;;;;1.13;0.82;;;;;;;18.14;71.51;100756.34;5031587;28;20123;-44
2023/08/08 10:36:51;;;;;;;0.68;0.68;;;;;;;18.20;71.72;100735.16;5029959;28;20160;-45
2023/08/08 10:39:20;;;;;;;2.30;1.23;;;;;;;18.29;71.74;100748.81;5030061;28;20136;-44
2023/08/08 10:41:49;;;;;;;1.42;0.95;;;;;;;18.40;71.30;100749.59;5028221;28;20073;-45
2023/08/08 10:44:24;;;;;;;1.48;1.02;;;;;;;18.48;71.58;100753.28;5031312;28;20065;-45
2023/08/08 10:46:53;;;;;;;0.70;0.70;;;;;;;18.57;71.85;100753.66;5018264;28;20095;-45
2023/08/08 10:49:22;;;;;;;1.50;1.40;;;;;;;18.55;71.70;100748.47;5031243;28;20233;-44
2023/08/08 10:51:51;;;;;;;0.90;0.80;;;;;;;18.48;71.62;100737.22;5030398;28;20053;-45
2023/08/08 10:54:30;;;;;;;2.83;0.90;;;;;;;18.36;71.94;100748.81;5029560;28;20053;-44
2023/08/08 10:56:58;;;;;;;2.92;1.10;;;;;;;18.20;71.93;100745.56;5030045;28;20063;-44
2023/08/08 10:59:37;;;;;;;4.40;1.52;;;;;;;18.01;72.45;100743.09;5031155;28;20042;-45
2023/08/08 11:02:04;;;;;;;2.03;1.05;;;;;;;17.83;72.35;100736.66;5028775;28;20087;-44
2023/08/08 11:04:32;;;;;;;1.45;1.20;;;;;;;17.71;72.86;100734.22;5029491;28;20053;-43
2023/08/08 11:07:00;;;;;;;7.85;1.40;;;;;;;17.60;73.15;100746.16;5031192;28;20037;-44
2023/08/08 11:09:27;;;;;;;3.00;1.00;;;;;;;17.51;73.57;100733.66;5029017;28;20069;-44
2023/08/08 11:11:53;;;;;;;2.35;1.73;;;;;;;17.45;73.99;100738.84;5030820;28;20452;-44
2023/08/08 11:14:22;;;;;;;6.53;2.78;;;;;;;17.38;74.02;100733.22;5029225;28;20051;-45
2023/08/08 11:16:51;;;;;;;4.82;2.90;;;;;;;17.31;74.45;100733.19;5031430;28;20042;-44
2023/08/08 11:19:19;;;;;;;4.97;2.70;;;;;;;17.21;74.49;100738.72;5030860;28;20060;-45
2023/08/08 11:21:49;;;;;;;4.68;2.95;;;;;;;17.12;74.58;100743.84;5030872;28;20127;-44
2023/08/08 11:24:16;;;;;;;2.90;1.50;;;;;;;17.02;74.76;100753.78;5029414;28;20042;-44
2023/08/08 11:26:47;;;;;;;2.92;2.35;;;;;;;16.93;74.84;100750.50;5028881;28;20050;-45
2023/08/08 11:29:14;;;;;;;5.93;2.83;;;;;;;16.87;75.19;100738.06;5030788;28;20749;-45